createdAt,value
2018-01-20T00:00:15.359Z,9.63
2018-01-20T00:02:44.383Z,13.67
2018-01-20T00:05:12.638Z,14.73
2018-01-20T00:07:40.935Z,11.57
2018-01-20T00:13:11.810Z,12.50
2018-01-20T00:15:40.176Z,9.50
2018-01-20T00:18:08.427Z,10.77
2018-01-20T00:20:36.689Z,11.33
2018-01-20T00:23:05.698Z,9.30
2018-01-20T00:25:33.948Z,12.93
2018-01-20T00:28:02.973Z,11.17
2018-01-20T00:30:31.226Z,8.63
2018-01-20T00:33:00.237Z,13.20
2018-01-20T00:35:28.457Z,10.17
2018-01-20T00:37:56.746Z,13.00
2018-01-20T00:40:24.994Z,17.50
2018-01-20T00:42:53.516Z,15.03
2018-01-20T00:45:21.824Z,18.37
2018-01-20T00:47:50.079Z,17.80
2018-01-20T00:50:18.358Z,15.90
2018-01-20T00:52:46.739Z,15.60
2018-01-20T00:55:15.027Z,13.57
2018-01-20T00:57:43.395Z,17.70
2018-01-20T01:00:11.680Z,14.83
2018-01-20T01:02:40.002Z,17.07
2018-01-20T01:05:09.067Z,17.63
2018-01-20T01:07:37.326Z,20.43
2018-01-20T01:10:05.697Z,20.53
2018-01-20T01:12:34.078Z,23.00
2018-01-20T01:15:02.371Z,26.53
2018-01-20T01:17:30.654Z,21.80
2018-01-20T01:19:58.934Z,26.17
2018-01-20T01:22:27.194Z,25.50
2018-01-20T01:24:55.618Z,25.87
2018-01-20T01:27:24.655Z,27.40
2018-01-20T01:29:52.924Z,26.23
2018-01-20T01:32:21.342Z,29.43
2018-01-20T01:34:49.638Z,25.80
2018-01-20T01:37:18.825Z,30.50
2018-01-20T01:39:47.881Z,27.77
2018-01-20T01:42:16.137Z,26.67
2018-01-20T01:44:44.386Z,28.07
2018-01-20T01:47:12.735Z,27.67
2018-01-20T01:49:41.856Z,30.37
2018-01-20T01:52:10.109Z,34.37
2018-01-20T01:54:39.134Z,29.53
2018-01-20T01:57:07.446Z,28.43
2018-01-20T01:59:35.693Z,27.03
2018-01-20T02:02:03.964Z,29.63
2018-01-20T02:04:32.246Z,27.50
2018-01-20T02:07:00.506Z,24.37
2018-01-20T02:09:29.662Z,25.20
2018-01-20T02:11:57.907Z,22.37
2018-01-20T02:14:26.195Z,20.77
2018-01-20T02:16:54.458Z,22.63
2018-01-20T02:19:22.740Z,18.50
2018-01-20T02:21:51.126Z,15.97
2018-01-20T02:24:20.175Z,14.90
2018-01-20T02:26:48.459Z,16.70
2018-01-20T02:29:16.693Z,16.10
2018-01-20T02:31:45.706Z,14.27
2018-01-20T02:34:14.235Z,16.07
2018-01-20T02:36:42.498Z,16.00
2018-01-20T02:39:10.793Z,17.73
2018-01-20T02:41:39.100Z,14.20
2018-01-20T02:44:07.357Z,14.80
2018-01-20T02:46:35.782Z,15.70
2018-01-20T02:49:04.131Z,18.57
2018-01-20T02:51:33.168Z,14.73
2018-01-20T02:54:01.438Z,13.17
2018-01-20T02:56:29.717Z,14.77
2018-01-20T02:58:57.970Z,18.47
2018-01-20T03:01:26.270Z,13.33
2018-01-20T03:03:54.519Z,14.57
2018-01-20T03:06:22.812Z,14.53
2018-01-20T03:08:51.072Z,20.57
2018-01-20T03:11:19.331Z,21.80
2018-01-20T03:13:47.641Z,19.87
2018-01-20T03:16:15.926Z,15.83
2018-01-20T03:18:44.154Z,15.20
2018-01-20T03:21:12.447Z,18.37
2018-01-20T03:23:40.676Z,15.00
2018-01-20T03:26:09.717Z,16.90
2018-01-20T03:28:37.989Z,15.87
2018-01-20T03:31:06.275Z,22.57
2018-01-20T03:33:34.570Z,21.87
2018-01-20T03:36:02.834Z,18.20
2018-01-20T03:38:31.139Z,19.03
2018-01-20T03:40:59.564Z,20.97
2018-01-20T03:43:27.990Z,22.47
2018-01-20T03:45:56.230Z,17.87
2018-01-20T03:48:26.038Z,15.73
2018-01-20T03:50:54.400Z,18.13
2018-01-20T03:53:22.675Z,19.50
2018-01-20T03:55:51.670Z,15.80
2018-01-20T03:58:20.057Z,18.30
2018-01-20T04:00:48.436Z,19.57
2018-01-20T04:03:16.806Z,16.30
2018-01-20T04:05:45.135Z,18.63
2018-01-20T04:08:13.423Z,19.93
2018-01-20T04:10:41.674Z,20.70
2018-01-20T04:13:09.937Z,18.83
2018-01-20T04:15:38.426Z,16.00
2018-01-20T04:18:06.702Z,20.53
2018-01-20T04:20:35.002Z,18.33
2018-01-20T04:23:04.019Z,19.17
2018-01-20T04:25:32.269Z,18.27
2018-01-20T04:28:01.286Z,18.13
2018-01-20T04:30:29.560Z,16.90
2018-01-20T04:32:57.897Z,17.90
2018-01-20T04:35:26.175Z,19.37
2018-01-20T04:37:54.419Z,18.97
2018-01-20T04:40:22.682Z,20.10
2018-01-20T04:42:50.956Z,16.43
2018-01-20T04:45:19.325Z,17.80
2018-01-20T04:47:47.588Z,18.47
2018-01-20T04:50:15.863Z,19.60
2018-01-20T04:52:44.114Z,16.40
2018-01-20T04:55:13.180Z,21.90
2018-01-20T04:57:41.450Z,16.93
2018-01-20T05:00:09.751Z,21.17
2018-01-20T05:02:38.787Z,15.57
2018-01-20T05:05:07.045Z,16.80
2018-01-20T05:07:35.362Z,20.83
2018-01-20T05:10:03.613Z,16.33
2018-01-20T05:12:31.885Z,21.97
2018-01-20T05:15:00.150Z,17.50
2018-01-20T05:17:28.421Z,16.60
2018-01-20T05:19:56.702Z,11.33
2018-01-20T05:22:24.945Z,15.50
2018-01-20T05:24:53.983Z,19.37
2018-01-20T05:27:22.622Z,14.13
2018-01-20T05:29:50.890Z,16.43
2018-01-20T05:32:19.241Z,19.37
2018-01-20T05:34:47.637Z,20.50
2018-01-20T05:37:15.885Z,14.30
2018-01-20T05:39:44.137Z,17.77
2018-01-20T05:42:12.490Z,14.03
2018-01-20T05:44:40.770Z,21.03
2018-01-20T05:47:09.030Z,12.03
2018-01-20T05:49:37.278Z,14.60
2018-01-20T05:52:05.641Z,14.90
2018-01-20T05:54:33.983Z,14.10
2018-01-20T05:57:02.246Z,15.10
2018-01-20T05:59:30.507Z,13.40
2018-01-20T06:01:59.629Z,17.13
2018-01-20T06:04:27.977Z,16.67
2018-01-20T06:06:56.286Z,15.37
2018-01-20T06:09:24.690Z,13.67
2018-01-20T06:11:52.954Z,14.10
2018-01-20T06:14:21.199Z,17.07
2018-01-20T06:16:49.542Z,20.13
2018-01-20T06:19:17.876Z,18.33
2018-01-20T06:21:46.155Z,16.03
2018-01-20T06:24:14.382Z,14.20
2018-01-20T06:26:43.422Z,16.17
2018-01-20T06:29:11.679Z,18.00
2018-01-20T06:31:39.960Z,16.57
2018-01-20T06:34:08.237Z,20.03
2018-01-20T06:36:36.514Z,15.77
2018-01-20T06:39:04.771Z,16.37
2018-01-20T06:41:33.842Z,17.90
2018-01-20T06:44:02.895Z,16.83
2018-01-20T06:46:31.161Z,17.10
2018-01-20T06:48:59.415Z,14.33
2018-01-20T06:51:27.665Z,16.40
2018-01-20T06:53:55.924Z,16.60
2018-01-20T06:56:24.982Z,16.10
2018-01-20T06:58:53.233Z,16.20
2018-01-20T07:01:21.594Z,13.40
2018-01-20T07:03:50.597Z,15.40
2018-01-20T07:06:18.857Z,15.27
2018-01-20T07:08:47.223Z,17.10
2018-01-20T07:11:16.252Z,17.10
2018-01-20T07:13:44.521Z,16.63
2018-01-20T07:16:12.869Z,14.13
2018-01-20T07:18:41.123Z,19.23
2018-01-20T07:21:09.567Z,16.07
2018-01-20T07:23:37.818Z,15.37
2018-01-20T07:26:06.169Z,11.37
2018-01-20T07:28:35.186Z,16.20
2018-01-20T07:31:03.434Z,19.60
2018-01-20T07:33:32.651Z,11.00
2018-01-20T07:36:00.927Z,14.70
2018-01-20T07:38:29.206Z,14.90
2018-01-20T07:40:57.469Z,17.10
2018-01-20T07:43:25.749Z,14.13
2018-01-20T07:45:54.004Z,10.80
2018-01-20T07:48:22.991Z,16.70
2018-01-20T07:50:52.015Z,14.57
2018-01-20T07:53:20.301Z,14.80
2018-01-20T07:55:48.557Z,17.17
2018-01-20T07:58:16.825Z,16.03
2018-01-20T08:00:45.159Z,13.40
2018-01-20T08:03:13.453Z,15.23
2018-01-20T08:05:41.742Z,16.97
2018-01-20T08:08:09.976Z,18.33
2018-01-20T08:10:38.269Z,12.60
2018-01-20T08:13:06.590Z,24.17
2018-01-20T08:15:34.870Z,15.13
2018-01-20T08:18:03.196Z,17.50
2018-01-20T08:20:31.435Z,10.73
2018-01-20T08:22:59.847Z,15.47
2018-01-20T08:25:29.601Z,13.93
2018-01-20T08:27:57.861Z,20.60
2018-01-20T08:30:26.112Z,11.30
2018-01-20T08:32:55.177Z,13.03
2018-01-20T08:35:23.451Z,17.90
2018-01-20T08:37:51.705Z,17.50
2018-01-20T08:40:19.949Z,12.80
2018-01-20T08:42:49.028Z,12.63
2018-01-20T08:45:17.920Z,14.60
2018-01-20T08:47:47.154Z,11.30
2018-01-20T08:50:15.435Z,15.43
2018-01-20T08:52:43.718Z,15.80
2018-01-20T08:55:11.982Z,17.50
2018-01-20T08:57:40.261Z,14.67
2018-01-20T09:00:08.538Z,15.17
2018-01-20T09:02:36.820Z,14.27
2018-01-20T09:05:05.078Z,21.07
2018-01-20T09:07:33.354Z,13.47
2018-01-20T09:10:01.642Z,13.83
2018-01-20T09:12:29.914Z,11.70
2018-01-20T09:14:58.270Z,23.33
2018-01-20T09:17:26.509Z,13.23
2018-01-20T09:19:55.586Z,15.03
2018-01-20T09:22:23.838Z,24.43
2018-01-20T09:24:52.193Z,18.70
2018-01-20T09:27:20.430Z,12.70
2018-01-20T09:29:49.554Z,14.93
2018-01-20T09:32:17.972Z,18.27
2018-01-20T09:34:46.222Z,15.03
2018-01-20T09:37:14.485Z,20.57
2018-01-20T09:39:42.927Z,16.13
2018-01-20T09:42:11.183Z,16.40
2018-01-20T09:44:39.495Z,13.27
2018-01-20T09:47:08.563Z,13.47
2018-01-20T09:49:36.787Z,13.90
2018-01-20T09:52:05.082Z,16.17
2018-01-20T09:54:33.452Z,17.43
2018-01-20T09:57:01.713Z,14.07
2018-01-20T09:59:29.960Z,17.53
2018-01-20T10:01:59.024Z,11.07
2018-01-20T10:04:27.288Z,13.77
2018-01-20T10:06:55.528Z,11.30
2018-01-20T10:09:23.826Z,17.33
2018-01-20T10:11:52.132Z,10.53
2018-01-20T10:14:20.399Z,11.17
2018-01-20T10:16:48.611Z,13.20
2018-01-20T10:19:16.877Z,7.87
2018-01-20T10:21:45.912Z,10.20
2018-01-20T10:24:14.330Z,9.80
2018-01-20T10:26:42.591Z,8.30
2018-01-20T10:29:10.862Z,10.43
2018-01-20T10:31:39.125Z,10.57
2018-01-20T10:34:07.555Z,12.57
2018-01-20T10:36:36.574Z,13.87
2018-01-20T10:39:04.833Z,9.77
2018-01-20T10:41:33.106Z,12.00
2018-01-20T10:44:01.339Z,9.77
2018-01-20T10:46:29.601Z,11.13
2018-01-20T10:48:57.875Z,10.90
2018-01-20T10:51:26.117Z,8.03
2018-01-20T10:53:54.363Z,8.97
2018-01-20T10:56:23.401Z,9.07
2018-01-20T10:58:51.646Z,10.07
2018-01-20T11:01:19.911Z,9.27
2018-01-20T11:03:48.177Z,10.23
2018-01-20T11:06:17.262Z,12.10
2018-01-20T11:08:45.665Z,12.23
2018-01-20T11:11:14.150Z,7.43
2018-01-20T11:13:42.435Z,7.63
2018-01-20T11:16:10.699Z,10.23
2018-01-20T11:18:39.007Z,10.10
2018-01-20T11:21:07.356Z,11.43
2018-01-20T11:23:35.679Z,6.83
2018-01-20T11:26:03.931Z,10.87
2018-01-20T11:28:32.199Z,8.13
2018-01-20T11:31:00.462Z,11.50
2018-01-20T11:33:28.763Z,8.00
2018-01-20T11:35:57.018Z,10.63
2018-01-20T11:38:25.270Z,10.50
2018-01-20T11:40:53.608Z,11.17
2018-01-20T11:43:21.854Z,11.47
2018-01-20T11:45:50.182Z,9.70
2018-01-20T11:48:19.250Z,6.10
2018-01-20T11:50:47.530Z,10.37
2018-01-20T11:53:16.576Z,8.93
2018-01-20T11:55:44.866Z,9.47
2018-01-20T11:58:13.118Z,10.40
2018-01-20T12:00:41.559Z,10.50
2018-01-20T12:03:09.833Z,7.63
2018-01-20T12:05:38.888Z,10.90
2018-01-20T12:08:07.129Z,12.50
2018-01-20T12:10:35.463Z,11.60
2018-01-20T12:13:05.234Z,14.07
2018-01-20T12:15:33.519Z,8.10
2018-01-20T12:18:01.779Z,8.70
2018-01-20T12:20:30.176Z,9.60
2018-01-20T12:22:59.195Z,10.00
2018-01-20T12:25:27.475Z,10.03
2018-01-20T12:27:56.552Z,9.37
2018-01-20T12:30:24.886Z,9.10
2018-01-20T12:32:53.169Z,10.80
2018-01-20T12:35:21.402Z,31.00
2018-01-20T12:37:50.465Z,27.17
2018-01-20T12:40:18.769Z,30.03
2018-01-20T12:42:47.791Z,18.53
2018-01-20T12:45:17.800Z,11.43
2018-01-20T12:47:46.188Z,12.73
2018-01-20T12:50:14.457Z,10.67
2018-01-20T12:52:42.951Z,10.30
2018-01-20T12:55:11.213Z,12.10
2018-01-20T12:57:39.488Z,16.10
2018-01-20T13:00:07.750Z,15.17
2018-01-20T13:02:36.796Z,10.20
2018-01-20T13:05:05.075Z,12.97
2018-01-20T13:07:33.467Z,11.37
2018-01-20T13:10:01.713Z,11.27
2018-01-20T13:12:30.039Z,18.53
2018-01-20T13:14:59.076Z,17.27
2018-01-20T13:17:27.481Z,13.07
2018-01-20T13:19:56.637Z,11.10
2018-01-20T13:22:24.894Z,18.83
2018-01-20T13:24:53.164Z,27.73
2018-01-20T13:27:22.178Z,25.83
2018-01-20T13:29:50.480Z,30.40
2018-01-20T13:32:18.726Z,27.77
2018-01-20T13:34:47.007Z,20.97
2018-01-20T13:37:15.283Z,11.50
2018-01-20T13:39:43.705Z,13.83
2018-01-20T13:42:11.944Z,18.90
2018-01-20T13:44:40.202Z,14.27
2018-01-20T13:47:08.462Z,13.43
2018-01-20T13:49:37.501Z,7.57
2018-01-20T13:52:05.818Z,5.77
2018-01-20T13:54:34.074Z,8.17
2018-01-20T13:57:02.314Z,4.67
2018-01-20T13:59:30.603Z,5.57
2018-01-20T14:01:58.827Z,6.63
2018-01-20T14:04:27.070Z,7.33
2018-01-20T14:06:55.391Z,8.93
2018-01-20T14:09:23.718Z,16.70
2018-01-20T14:11:51.974Z,10.73
2018-01-20T14:14:20.218Z,8.27
2018-01-20T14:16:48.507Z,14.63
2018-01-20T14:19:16.740Z,14.27
2018-01-20T14:21:45.773Z,11.57
2018-01-20T14:24:14.045Z,11.00
2018-01-20T14:26:42.396Z,11.77
2018-01-20T14:29:10.702Z,10.30
2018-01-20T14:31:39.083Z,14.20
2018-01-20T14:34:07.427Z,16.40
2018-01-20T14:36:35.825Z,19.30
2018-01-20T14:39:04.130Z,10.40
2018-01-20T14:41:32.569Z,17.47
2018-01-20T14:44:00.867Z,13.00
2018-01-20T14:46:29.103Z,16.87
2018-01-20T14:48:57.462Z,11.40
2018-01-20T14:51:25.727Z,13.73
2018-01-20T14:53:54.773Z,19.33
2018-01-20T14:56:23.023Z,11.33
2018-01-20T14:58:51.309Z,13.83
2018-01-20T15:01:19.571Z,25.83
2018-01-20T15:03:47.846Z,11.67
2018-01-20T15:06:16.130Z,11.13
2018-01-20T15:08:44.454Z,10.20
2018-01-20T15:11:12.729Z,24.47
2018-01-20T15:13:41.019Z,13.17
2018-01-20T15:16:10.765Z,15.03
2018-01-20T15:18:39.067Z,12.60
2018-01-20T15:21:07.321Z,19.10
2018-01-20T15:23:35.569Z,11.97
2018-01-20T15:26:03.862Z,16.63
2018-01-20T15:28:32.135Z,15.43
2018-01-20T15:31:00.424Z,12.87
2018-01-20T15:33:28.779Z,13.17
2018-01-20T15:35:57.154Z,10.07
2018-01-20T15:38:26.339Z,13.47
2018-01-20T15:40:55.421Z,11.00
2018-01-20T15:43:23.748Z,11.00
2018-01-20T15:45:52.014Z,9.47
2018-01-20T15:48:20.305Z,10.20
2018-01-20T15:50:48.577Z,11.37
2018-01-20T15:53:16.866Z,7.53
2018-01-20T15:55:45.126Z,8.17
2018-01-20T15:58:13.504Z,8.17
2018-01-20T16:00:41.757Z,8.60
2018-01-20T16:03:10.005Z,7.83
2018-01-20T16:05:38.273Z,8.27
2018-01-20T16:08:06.525Z,6.53
2018-01-20T16:10:34.858Z,7.43
2018-01-20T16:13:03.855Z,6.10
2018-01-20T16:15:32.127Z,6.37
2018-01-20T16:18:00.406Z,8.67
2018-01-20T16:20:28.659Z,7.73
2018-01-20T16:22:57.023Z,7.07
2018-01-20T16:25:25.308Z,8.53
2018-01-20T16:27:54.349Z,10.03
2018-01-20T16:30:22.588Z,10.57
2018-01-20T16:32:50.928Z,9.80
2018-01-20T16:35:19.214Z,14.03
2018-01-20T16:37:48.246Z,10.27
2018-01-20T16:40:16.477Z,9.30
2018-01-20T16:42:44.743Z,12.50
2018-01-20T16:45:13.010Z,13.57
2018-01-20T16:47:41.286Z,9.57
2018-01-20T16:50:09.563Z,9.53
2018-01-20T16:52:37.845Z,9.77
2018-01-20T16:55:06.058Z,11.67
2018-01-20T16:57:34.303Z,6.70
2018-01-20T17:00:03.313Z,6.77
2018-01-20T17:02:32.324Z,8.33
2018-01-20T17:05:00.646Z,8.63
2018-01-20T17:07:29.765Z,9.87
2018-01-20T17:09:58.780Z,8.47
2018-01-20T17:12:27.034Z,15.33
2018-01-20T17:14:56.153Z,9.00
2018-01-20T17:17:24.408Z,9.23
2018-01-20T17:19:53.417Z,10.10
2018-01-20T17:22:21.671Z,11.17
2018-01-20T17:24:50.685Z,13.43
2018-01-20T17:27:18.967Z,10.13
2018-01-20T17:29:47.392Z,10.23
2018-01-20T17:32:15.642Z,10.57
2018-01-20T17:34:43.982Z,13.07
2018-01-20T17:37:12.993Z,11.10
2018-01-20T17:39:41.268Z,14.37
2018-01-20T17:42:09.637Z,11.30
2018-01-20T17:44:38.655Z,16.00
2018-01-20T17:47:06.918Z,15.73
2018-01-20T17:49:35.236Z,18.87
2018-01-20T17:52:03.509Z,20.10
2018-01-20T17:54:31.768Z,20.97
2018-01-20T17:57:00.045Z,19.17
2018-01-20T17:59:28.441Z,18.00
2018-01-20T18:01:56.761Z,17.03
2018-01-20T18:04:25.014Z,17.77
2018-01-20T18:06:53.288Z,19.73
2018-01-20T18:09:22.414Z,17.90
2018-01-20T18:11:50.688Z,14.67
2018-01-20T18:14:19.001Z,17.10
2018-01-20T18:16:47.275Z,16.43
2018-01-20T18:19:15.649Z,17.73
2018-01-20T18:21:43.946Z,16.83
2018-01-20T18:24:12.485Z,17.47
2018-01-20T18:26:40.742Z,16.43
2018-01-20T18:29:09.117Z,18.43
2018-01-20T18:31:37.376Z,17.27
2018-01-20T18:34:05.822Z,19.50
2018-01-20T18:36:34.874Z,19.90
2018-01-20T18:39:03.166Z,22.73
2018-01-20T18:41:31.447Z,22.47
2018-01-20T18:43:59.745Z,22.50
2018-01-20T18:46:28.802Z,22.93
2018-01-20T18:48:57.054Z,25.83
2018-01-20T18:51:25.329Z,24.90
2018-01-20T18:53:53.591Z,23.77
2018-01-20T18:56:21.890Z,23.20
2018-01-20T18:58:50.170Z,25.43
2018-01-20T19:01:18.437Z,24.10
2018-01-20T19:03:46.726Z,28.90
2018-01-20T19:06:15.396Z,26.13
2018-01-20T19:08:43.643Z,25.73
2018-01-20T19:11:11.921Z,25.23
2018-01-20T19:13:40.217Z,24.90
2018-01-20T19:16:08.645Z,23.37
2018-01-20T19:18:36.875Z,29.13
2018-01-20T19:21:05.163Z,25.23
2018-01-20T19:23:33.424Z,25.43
2018-01-20T19:26:01.722Z,28.70
2018-01-20T19:28:29.970Z,29.27
2018-01-20T19:30:58.246Z,27.57
2018-01-20T19:33:26.510Z,30.67
2018-01-20T19:35:54.793Z,31.23
2018-01-20T19:38:23.041Z,31.40
2018-01-20T19:40:51.285Z,28.60
2018-01-20T19:43:20.335Z,30.77
2018-01-20T19:45:48.587Z,29.60
2018-01-20T19:48:16.878Z,31.00
2018-01-20T19:50:45.163Z,32.77
2018-01-20T19:53:13.481Z,30.13
2018-01-20T19:55:41.722Z,33.47
2018-01-20T19:58:10.003Z,30.80
2018-01-20T20:00:38.278Z,27.57
2018-01-20T20:03:06.581Z,30.27
2018-01-20T20:05:35.618Z,32.77
2018-01-20T20:08:03.858Z,29.53
2018-01-20T20:10:32.891Z,29.53
2018-01-20T20:13:01.160Z,32.37
2018-01-20T20:15:29.822Z,33.80
2018-01-20T20:17:59.615Z,30.63
2018-01-20T20:20:28.046Z,35.33
2018-01-20T20:22:56.282Z,32.37
2018-01-20T20:25:24.547Z,39.10
2018-01-20T20:27:53.583Z,34.13
2018-01-20T20:30:21.835Z,36.73
2018-01-20T20:32:50.123Z,34.40
2018-01-20T20:35:18.455Z,32.47
2018-01-20T20:37:46.735Z,35.00
2018-01-20T20:40:15.795Z,30.43
2018-01-20T20:42:44.075Z,31.90
2018-01-20T20:45:12.421Z,32.83
2018-01-20T20:47:40.704Z,36.30
2018-01-20T20:50:08.995Z,35.47
2018-01-20T20:52:37.272Z,36.00
2018-01-20T20:55:05.514Z,36.70
2018-01-20T20:57:33.805Z,40.20
2018-01-20T21:00:02.089Z,39.63
2018-01-20T21:02:30.364Z,40.87
2018-01-20T21:04:58.703Z,37.43
2018-01-20T21:07:26.987Z,38.10
2018-01-20T21:09:55.255Z,36.17
2018-01-20T21:12:23.609Z,41.27
2018-01-20T21:14:52.647Z,37.63
2018-01-20T21:17:20.918Z,40.97
2018-01-20T21:19:49.195Z,37.70
2018-01-20T21:22:17.478Z,40.37
2018-01-20T21:24:45.743Z,35.57
2018-01-20T21:27:14.010Z,39.00
2018-01-20T21:29:42.338Z,37.17
2018-01-20T21:32:10.678Z,35.80
2018-01-20T21:34:39.016Z,37.67
2018-01-20T21:37:08.764Z,36.37
2018-01-20T21:39:37.030Z,36.13
2018-01-20T21:42:05.282Z,35.07
2018-01-20T21:44:33.637Z,37.70
2018-01-20T21:47:01.905Z,40.03
2018-01-20T21:49:30.202Z,35.30
2018-01-20T21:51:58.445Z,35.77
2018-01-20T21:54:26.740Z,37.67
2018-01-20T21:56:55.766Z,38.83
2018-01-20T21:59:24.026Z,40.70
2018-01-20T22:01:52.312Z,40.87
2018-01-20T22:04:20.593Z,42.77
2018-01-20T22:06:48.863Z,37.67
2018-01-20T22:09:17.130Z,38.40
2018-01-20T22:11:45.423Z,42.43
2018-01-20T22:14:13.676Z,40.13
2018-01-20T22:16:41.934Z,42.37
2018-01-20T22:19:10.949Z,42.63
2018-01-20T22:21:39.228Z,41.37
2018-01-20T22:24:07.470Z,41.00
2018-01-20T22:26:36.479Z,41.43
2018-01-20T22:29:04.811Z,46.53
2018-01-20T22:31:33.078Z,46.17
2018-01-20T22:34:01.335Z,44.93
2018-01-20T22:36:29.586Z,48.73
2018-01-20T22:38:57.854Z,48.87
2018-01-20T22:41:26.131Z,50.77
2018-01-20T22:43:54.418Z,49.23
2018-01-20T22:46:22.862Z,50.50
2018-01-20T22:48:51.121Z,50.50
2018-01-20T22:51:19.359Z,55.10
2018-01-20T22:53:47.670Z,52.93
2018-01-20T22:56:16.026Z,52.07
2018-01-20T22:58:44.330Z,53.60
2018-01-20T23:01:12.600Z,52.57
2018-01-20T23:03:40.988Z,52.87
2018-01-20T23:06:10.046Z,57.50
2018-01-20T23:08:38.369Z,50.60
2018-01-20T23:11:07.545Z,53.07
2018-01-20T23:13:35.823Z,54.90
2018-01-20T23:16:04.120Z,55.03
2018-01-20T23:18:33.133Z,61.30
2018-01-20T23:21:01.375Z,63.37
2018-01-20T23:23:30.434Z,61.20
2018-01-20T23:25:58.739Z,64.90
2018-01-20T23:28:26.980Z,64.73
2018-01-20T23:30:55.222Z,64.70
2018-01-20T23:33:23.490Z,64.70
2018-01-20T23:35:51.996Z,58.87
2018-01-20T23:38:20.422Z,56.80
2018-01-20T23:40:49.429Z,56.77
2018-01-20T23:43:17.731Z,59.10
2018-01-20T23:45:46.032Z,63.30
2018-01-20T23:48:14.281Z,55.63
2018-01-20T23:50:42.613Z,60.80
2018-01-20T23:53:10.946Z,62.70
2018-01-20T23:55:39.190Z,57.17
2018-01-20T23:58:07.513Z,58.53
